sensor_id;sensor_type;location;lat;lon;timestamp;pressure;altitude;pressure_sealevel;temperature;humidity
35577;BME280;21680;52.400;16.920;2023-11-19T00:02:12;101265.52;;;2.15;91.33
35577;BME280;21680;52.400;16.920;2023-11-19T00:04:38;101252.30;;;2.16;91.34
35577;BME280;21680;52.400;16.920;2023-11-19T00:07:06;101247.02;;;2.18;91.20
35577;BME280;21680;52.400;16.920;2023-11-19T00:09:33;101242.08;;;2.17;91.45
35577;BME280;21680;52.400;16.920;2023-11-19T00:11:59;101229.03;;;2.18;91.25
35577;BME280;21680;52.400;16.920;2023-11-19T00:14:26;101212.29;;;2.16;91.17
35577;BME280;21680;52.400;16.920;2023-11-19T00:16:51;101205.77;;;2.14;91.15
35577;BME280;21680;52.400;16.920;2023-11-19T00:19:16;101209.81;;;2.11;91.06
35577;BME280;21680;52.400;16.920;2023-11-19T00:21:42;101206.46;;;2.09;91.05
35577;BME280;21680;52.400;16.920;2023-11-19T00:24:08;101207.16;;;2.06;91.18
35577;BME280;21680;52.400;16.920;2023-11-19T00:26:34;101202.05;;;2.02;90.99
35577;BME280;21680;52.400;16.920;2023-11-19T00:28:59;101194.48;;;1.98;91.05
35577;BME280;21680;52.400;16.920;2023-11-19T00:31:25;101193.59;;;1.97;91.03
35577;BME280;21680;52.400;16.920;2023-11-19T00:33:53;101193.41;;;1.94;91.05
35577;BME280;21680;52.400;16.920;2023-11-19T00:36:18;101188.30;;;1.92;91.03
35577;BME280;21680;52.400;16.920;2023-11-19T00:38:44;101187.60;;;1.91;90.94
35577;BME280;21680;52.400;16.920;2023-11-19T00:41:09;101185.13;;;1.90;91.10
35577;BME280;21680;52.400;16.920;2023-11-19T00:43:35;101174.91;;;1.90;91.05
35577;BME280;21680;52.400;16.920;2023-11-19T00:46:01;101162.22;;;1.90;90.93
35577;BME280;21680;52.400;16.920;2023-11-19T00:48:29;101154.30;;;1.89;90.99
35577;BME280;21680;52.400;16.920;2023-11-19T00:50:54;101153.94;;;1.90;91.13
35577;BME280;21680;52.400;16.920;2023-11-19T00:53:19;101147.60;;;1.90;90.96
35577;BME280;21680;52.400;16.920;2023-11-19T00:55:45;101137.37;;;1.90;90.99
35577;BME280;21680;52.400;16.920;2023-11-19T00:58:10;101122.92;;;1.90;90.94
35577;BME280;21680;52.400;16.920;2023-11-19T01:00:35;101115.17;;;1.88;90.98
35577;BME280;21680;52.400;16.920;2023-11-19T01:03:01;101109.70;;;1.88;90.95
35577;BME280;21680;52.400;16.920;2023-11-19T01:05:26;101103.71;;;1.87;91.08
35577;BME280;21680;52.400;16.920;2023-11-19T01:07:53;101104.95;;;1.86;90.88
35577;BME280;21680;52.400;16.920;2023-11-19T01:10:19;101106.71;;;1.85;90.92
35577;BME280;21680;52.400;16.920;2023-11-19T01:12:45;101100.90;;;1.83;90.91
35577;BME280;21680;52.400;16.920;2023-11-19T01:15:10;101089.98;;;1.81;90.88
35577;BME280;21680;52.400;16.920;2023-11-19T01:17:39;101087.15;;;1.82;90.84
35577;BME280;21680;52.400;16.920;2023-11-19T01:20:06;101090.51;;;1.79;90.77
35577;BME280;21680;52.400;16.920;2023-11-19T01:22:32;101087.16;;;1.78;90.85
35577;BME280;21680;52.400;16.920;2023-11-19T01:24:57;101088.74;;;1.76;90.68
35577;BME280;21680;52.400;16.920;2023-11-19T01:27:24;101089.27;;;1.76;90.91
35577;BME280;21680;52.400;16.920;2023-11-19T01:29:50;101091.04;;;1.77;90.88
35577;BME280;21680;52.400;16.920;2023-11-19T01:32:15;101084.34;;;1.78;90.96
35577;BME280;21680;52.400;16.920;2023-11-19T01:34:41;101079.05;;;1.81;90.85
35577;BME280;21680;52.400;16.920;2023-11-19T01:37:06;101070.59;;;1.82;90.90
35577;BME280;21680;52.400;16.920;2023-11-19T01:39:34;101070.77;;;1.81;90.94
35577;BME280;21680;52.400;16.920;2023-11-19T01:41:59;101073.59;;;1.80;90.74
35577;BME280;21680;52.400;16.920;2023-11-19T01:44:25;101066.02;;;1.79;90.81
35577;BME280;21680;52.400;16.920;2023-11-19T01:46:50;101051.04;;;1.79;90.69
35577;BME280;21680;52.400;16.920;2023-11-19T01:49:17;101030.42;;;1.79;90.80
35577;BME280;21680;52.400;16.920;2023-11-19T01:51:43;101018.27;;;1.80;90.70
35577;BME280;21680;52.400;16.920;2023-11-19T01:54:09;101012.10;;;1.79;90.88
35577;BME280;21680;52.400;16.920;2023-11-19T01:56:35;101015.09;;;1.80;90.89
35577;BME280;21680;52.400;16.920;2023-11-19T01:59:02;101014.21;;;1.78;90.63
35577;BME280;21680;52.400;16.920;2023-11-19T02:01:30;101008.77;;;1.79;90.90
35577;BME280;21680;52.400;16.920;2023-11-19T02:03:57;101000.12;;;1.81;90.83
35577;BME280;21680;52.400;16.920;2023-11-19T02:06:24;101000.11;;;1.82;90.80
35577;BME280;21680;52.400;16.920;2023-11-19T02:08:51;100993.23;;;1.83;90.77
35577;BME280;21680;52.400;16.920;2023-11-19T02:11:17;100991.30;;;1.83;90.80
35577;BME280;21680;52.400;16.920;2023-11-19T02:13:42;100989.71;;;1.83;90.80
35577;BME280;21680;52.400;16.920;2023-11-19T02:16:09;100986.55;;;1.84;90.74
35577;BME280;21680;52.400;16.920;2023-11-19T02:18:36;100982.32;;;1.83;90.80
35577;BME280;21680;52.400;16.920;2023-11-19T02:21:02;100974.74;;;1.81;90.63
35577;BME280;21680;52.400;16.920;2023-11-19T02:23:28;100970.52;;;1.80;90.61
35577;BME280;21680;52.400;16.920;2023-11-19T02:26:08;100962.42;;;1.78;90.70
35577;BME280;21680;52.400;16.920;2023-11-19T02:28:39;100955.38;;;1.78;90.57
35577;BME280;21680;52.400;16.920;2023-11-19T02:31:05;100956.96;;;1.76;90.64
35577;BME280;21680;52.400;16.920;2023-11-19T02:33:35;100962.24;;;1.77;90.69
35577;BME280;21680;52.400;16.920;2023-11-19T02:36:01;100954.84;;;1.78;90.73
35577;BME280;21680;52.400;16.920;2023-11-19T02:38:27;100952.55;;;1.79;90.63
35577;BME280;21680;52.400;16.920;2023-11-19T02:40:52;100944.63;;;1.80;90.74
35577;BME280;21680;52.400;16.920;2023-11-19T02:43:17;100941.27;;;1.82;90.74
35577;BME280;21680;52.400;16.920;2023-11-19T02:45:43;100937.23;;;1.80;90.74
35577;BME280;21680;52.400;16.920;2023-11-19T02:48:11;100935.28;;;1.80;90.61
35577;BME280;21680;52.400;16.920;2023-11-19T02:50:36;100928.95;;;1.78;90.52
35577;BME280;21680;52.400;16.920;2023-11-19T02:53:02;100923.66;;;1.77;90.65
35577;BME280;21680;52.400;16.920;2023-11-19T02:55:28;100913.27;;;1.79;90.67
35577;BME280;21680;52.400;16.920;2023-11-19T02:57:56;100914.14;;;1.80;90.76
35577;BME280;21680;52.400;16.920;2023-11-19T03:00:24;100901.63;;;1.81;90.71
35577;BME280;21680;52.400;16.920;2023-11-19T03:02:53;100901.27;;;1.81;90.55
35577;BME280;21680;52.400;16.920;2023-11-19T03:05:26;100897.77;;;1.81;90.60
35577;BME280;21680;52.400;16.920;2023-11-19T03:07:52;100889.83;;;1.80;90.61
35577;BME280;21680;52.400;16.920;2023-11-19T03:10:17;100877.14;;;1.81;90.75
35577;BME280;21680;52.400;16.920;2023-11-19T03:12:44;100869.91;;;1.82;90.74
35577;BME280;21680;52.400;16.920;2023-11-19T03:15:10;100860.59;;;1.79;90.55
35577;BME280;21680;52.400;16.920;2023-11-19T03:17:38;100849.14;;;1.79;90.73
35577;BME280;21680;52.400;16.920;2023-11-19T03:20:06;100837.16;;;1.79;90.74
35577;BME280;21680;52.400;16.920;2023-11-19T03:22:33;100840.85;;;1.81;90.71
35577;BME280;21680;52.400;16.920;2023-11-19T03:24:59;100839.79;;;1.79;90.62
35577;BME280;21680;52.400;16.920;2023-11-19T03:27:25;100833.98;;;1.80;90.63
35577;BME280;21680;52.400;16.920;2023-11-19T03:29:50;100826.05;;;1.80;90.63
35577;BME280;21680;52.400;16.920;2023-11-19T03:32:15;100826.58;;;1.81;90.78
35577;BME280;21680;52.400;16.920;2023-11-19T03:34:40;100819.72;;;1.78;90.64
35577;BME280;21680;52.400;16.920;2023-11-19T03:37:06;100804.40;;;1.76;90.50
35577;BME280;21680;52.400;16.920;2023-11-19T03:39:31;100797.34;;;1.79;90.74
35577;BME280;21680;52.400;16.920;2023-11-19T03:41:56;100795.92;;;1.80;90.91
35577;BME280;21680;52.400;16.920;2023-11-19T03:44:22;100780.94;;;1.82;90.64
35577;BME280;21680;52.400;16.920;2023-11-19T03:46:47;100774.79;;;1.81;90.68
35577;BME280;21680;52.400;16.920;2023-11-19T03:49:13;100765.80;;;1.78;90.74
35577;BME280;21680;52.400;16.920;2023-11-19T03:51:39;100756.13;;;1.78;90.61
35577;BME280;21680;52.400;16.920;2023-11-19T03:54:05;100756.83;;;1.77;90.70
35577;BME280;21680;52.400;16.920;2023-11-19T03:56:33;100764.59;;;1.75;90.54
35577;BME280;21680;52.400;16.920;2023-11-19T03:58:58;100766.70;;;1.75;90.45
35577;BME280;21680;52.400;16.920;2023-11-19T04:01:23;100757.89;;;1.76;90.48
35577;BME280;21680;52.400;16.920;2023-11-19T04:03:49;100743.98;;;1.77;90.70
35577;BME280;21680;52.400;16.920;2023-11-19T04:06:14;100740.27;;;1.78;90.47
35577;BME280;21680;52.400;16.920;2023-11-19T04:08:39;100736.39;;;1.78;90.71
35577;BME280;21680;52.400;16.920;2023-11-19T04:11:05;100736.39;;;1.78;90.62
35577;BME280;21680;52.400;16.920;2023-11-19T04:13:30;100737.09;;;1.78;90.75
35577;BME280;21680;52.400;16.920;2023-11-19T04:15:55;100731.96;;;1.80;90.76
35577;BME280;21680;52.400;16.920;2023-11-19T04:18:21;100724.22;;;1.80;90.69
35577;BME280;21680;52.400;16.920;2023-11-19T04:20:47;100720.01;;;1.78;90.49
35577;BME280;21680;52.400;16.920;2023-11-19T04:23:12;100724.77;;;1.77;90.58
35577;BME280;21680;52.400;16.920;2023-11-19T04:25:38;100719.66;;;1.77;90.57
35577;BME280;21680;52.400;16.920;2023-11-19T04:28:03;100714.89;;;1.78;90.57
35577;BME280;21680;52.400;16.920;2023-11-19T04:30:29;100702.92;;;1.78;90.64
35577;BME280;21680;52.400;16.920;2023-11-19T04:32:57;100698.86;;;1.79;90.47
35577;BME280;21680;52.400;16.920;2023-11-19T04:35:22;100697.98;;;1.80;90.64
35577;BME280;21680;52.400;16.920;2023-11-19T04:37:47;100707.66;;;1.81;90.55
35577;BME280;21680;52.400;16.920;2023-11-19T04:40:13;100704.30;;;1.81;90.61
35577;BME280;21680;52.400;16.920;2023-11-19T04:42:38;100706.26;;;1.79;90.61
35577;BME280;21680;52.400;16.920;2023-11-19T04:45:07;100705.36;;;1.79;90.49
35577;BME280;21680;52.400;16.920;2023-11-19T04:47:33;100698.67;;;1.80;90.60
35577;BME280;21680;52.400;16.920;2023-11-19T04:49:59;100696.02;;;1.82;90.57
35577;BME280;21680;52.400;16.920;2023-11-19T04:52:25;100687.38;;;1.83;90.72
35577;BME280;21680;52.400;16.920;2023-11-19T04:54:50;100689.86;;;1.81;90.52
35577;BME280;21680;52.400;16.920;2023-11-19T04:57:15;100688.98;;;1.81;90.53
35577;BME280;21680;52.400;16.920;2023-11-19T04:59:43;100688.10;;;1.81;90.62
35577;BME280;21680;52.400;16.920;2023-11-19T05:02:08;100690.91;;;1.81;90.66
35577;BME280;21680;52.400;16.920;2023-11-19T05:04:34;100687.56;;;1.81;90.71
35577;BME280;21680;52.400;16.920;2023-11-19T05:07:00;100681.05;;;1.82;90.51
35577;BME280;21680;52.400;16.920;2023-11-19T05:09:25;100672.59;;;1.82;90.56
35577;BME280;21680;52.400;16.920;2023-11-19T05:11:51;100665.89;;;1.82;90.56
35577;BME280;21680;52.400;16.920;2023-11-19T05:14:16;100650.20;;;1.83;90.64
35577;BME280;21680;52.400;16.920;2023-11-19T05:16:43;100643.15;;;1.84;90.76
35577;BME280;21680;52.400;16.920;2023-11-19T05:19:09;100638.93;;;1.83;90.52
35577;BME280;21680;52.400;16.920;2023-11-19T05:21:34;100628.88;;;1.83;90.63
35577;BME280;21680;52.400;16.920;2023-11-19T05:24:01;100623.22;;;1.86;90.68
35577;BME280;21680;52.400;16.920;2023-11-19T05:26:30;100626.39;;;1.86;90.70
35577;BME280;21680;52.400;16.920;2023-11-19T05:28:55;100623.23;;;1.86;90.52
35577;BME280;21680;52.400;16.920;2023-11-19T05:31:21;100622.69;;;1.86;90.59
35577;BME280;21680;52.400;16.920;2023-11-19T05:33:46;100613.35;;;1.87;90.63
35577;BME280;21680;52.400;16.920;2023-11-19T05:36:12;100603.11;;;1.89;90.61
35577;BME280;21680;52.400;16.920;2023-11-19T05:38:38;100591.30;;;1.90;90.65
35577;BME280;21680;52.400;16.920;2023-11-19T05:41:06;100579.14;;;1.90;90.70
35577;BME280;21680;52.400;16.920;2023-11-19T05:43:32;100567.15;;;1.91;90.71
35577;BME280;21680;52.400;16.920;2023-11-19T05:45:57;100565.02;;;1.92;90.79
35577;BME280;21680;52.400;16.920;2023-11-19T05:48:25;100560.27;;;1.92;90.71
35577;BME280;21680;52.400;16.920;2023-11-19T05:50:50;100553.73;;;1.94;90.76
35577;BME280;21680;52.400;16.920;2023-11-19T05:53:16;100552.86;;;1.93;90.72
35577;BME280;21680;52.400;16.920;2023-11-19T05:55:41;100541.94;;;1.93;90.68
35577;BME280;21680;52.400;16.920;2023-11-19T05:58:25;100530.84;;;1.93;90.67
35577;BME280;21680;52.400;16.920;2023-11-19T06:00:52;100526.61;;;1.92;90.71
35577;BME280;21680;52.400;16.920;2023-11-19T06:03:17;100526.77;;;1.93;90.79
35577;BME280;21680;52.400;16.920;2023-11-19T06:05:46;100524.64;;;1.95;90.76
35577;BME280;21680;52.400;16.920;2023-11-19T06:08:12;100519.52;;;1.96;90.77
35577;BME280;21680;52.400;16.920;2023-11-19T06:10:40;100520.41;;;1.95;90.68
35577;BME280;21680;52.400;16.920;2023-11-19T06:13:05;100521.10;;;1.97;90.69
35577;BME280;21680;52.400;16.920;2023-11-19T06:15:32;100518.09;;;2.00;90.89
35577;BME280;21680;52.400;16.920;2023-11-19T06:17:58;100513.50;;;1.99;90.75
35577;BME280;21680;52.400;16.920;2023-11-19T06:20:26;100503.64;;;1.99;90.72
35577;BME280;21680;52.400;16.920;2023-11-19T06:22:53;100499.94;;;1.99;90.84
35577;BME280;21680;52.400;16.920;2023-11-19T06:25:19;100501.33;;;2.01;90.62
35577;BME280;21680;52.400;16.920;2023-11-19T06:27:44;100497.60;;;2.03;90.74
35577;BME280;21680;52.400;16.920;2023-11-19T06:30:10;100488.61;;;2.03;90.92
35577;BME280;21680;52.400;16.920;2023-11-19T06:32:37;100484.73;;;2.03;90.92
35577;BME280;21680;52.400;16.920;2023-11-19T06:35:04;100481.23;;;2.02;90.71
35577;BME280;21680;52.400;16.920;2023-11-19T06:37:30;100478.59;;;2.01;90.75
35577;BME280;21680;52.400;16.920;2023-11-19T06:39:57;100465.21;;;1.99;90.62
35577;BME280;21680;52.400;16.920;2023-11-19T06:42:22;100459.05;;;1.99;90.58
35577;BME280;21680;52.400;16.920;2023-11-19T06:44:47;100453.92;;;2.00;90.70
35577;BME280;21680;52.400;16.920;2023-11-19T06:47:13;100449.52;;;2.01;90.75
35577;BME280;21680;52.400;16.920;2023-11-19T06:49:38;100444.73;;;2.02;90.80
35577;BME280;21680;52.400;16.920;2023-11-19T06:52:05;100438.56;;;2.04;90.86
35577;BME280;21680;52.400;16.920;2023-11-19T06:54:31;100429.91;;;2.04;90.74
35577;BME280;21680;52.400;16.920;2023-11-19T06:56:56;100427.06;;;2.06;90.92
35577;BME280;21680;52.400;16.920;2023-11-19T06:59:23;100421.27;;;2.06;90.74
35577;BME280;21680;52.400;16.920;2023-11-19T07:01:48;100416.30;;;2.07;90.95
35577;BME280;21680;52.400;16.920;2023-11-19T07:04:13;100413.30;;;2.08;90.92
35577;BME280;21680;52.400;16.920;2023-11-19T07:06:39;100414.70;;;2.09;90.78
35577;BME280;21680;52.400;16.920;2023-11-19T07:09:06;100414.01;;;2.08;90.83
35577;BME280;21680;52.400;16.920;2023-11-19T07:11:39;100407.98;;;2.10;90.91
35577;BME280;21680;52.400;16.920;2023-11-19T07:14:05;100398.45;;;2.12;90.78
35577;BME280;21680;52.400;16.920;2023-11-19T07:16:34;100385.92;;;2.12;90.81
35577;BME280;21680;52.400;16.920;2023-11-19T07:19:03;100375.84;;;2.15;90.96
35577;BME280;21680;52.400;16.920;2023-11-19T07:21:30;100369.13;;;2.16;90.80
35577;BME280;21680;52.400;16.920;2023-11-19T07:23:56;100366.69;;;2.15;90.74
35577;BME280;21680;52.400;16.920;2023-11-19T07:26:22;100362.24;;;2.17;90.96
35577;BME280;21680;52.400;16.920;2023-11-19T07:28:48;100359.41;;;2.18;90.93
35577;BME280;21680;52.400;16.920;2023-11-19T07:31:13;100358.70;;;2.18;90.88
35577;BME280;21680;52.400;16.920;2023-11-19T07:33:41;100355.33;;;2.20;90.82
35577;BME280;21680;52.400;16.920;2023-11-19T07:36:09;100351.60;;;2.22;90.83
35577;BME280;21680;52.400;16.920;2023-11-19T07:38:34;100343.65;;;2.22;90.85
35577;BME280;21680;52.400;16.920;2023-11-19T07:41:00;100337.98;;;2.25;90.88
35577;BME280;21680;52.400;16.920;2023-11-19T07:43:25;100338.83;;;2.27;91.01
35577;BME280;21680;52.400;16.920;2023-11-19T07:45:51;100338.63;;;2.29;90.91
35577;BME280;21680;52.400;16.920;2023-11-19T07:48:16;100336.12;;;2.32;90.77
35577;BME280;21680;52.400;16.920;2023-11-19T07:50:43;100334.16;;;2.34;90.91
35577;BME280;21680;52.400;16.920;2023-11-19T07:53:08;100326.01;;;2.36;90.77
35577;BME280;21680;52.400;16.920;2023-11-19T07:55:34;100323.70;;;2.37;90.68
35577;BME280;21680;52.400;16.920;2023-11-19T07:57:59;100323.50;;;2.39;90.89
35577;BME280;21680;52.400;16.920;2023-11-19T08:00:25;100321.88;;;2.41;90.76
35577;BME280;21680;52.400;16.920;2023-11-19T08:02:50;100320.46;;;2.42;90.83
35577;BME280;21680;52.400;16.920;2023-11-19T08:05:15;100316.88;;;2.45;90.96
35577;BME280;21680;52.400;16.920;2023-11-19T08:07:41;100307.33;;;2.47;90.84
35577;BME280;21680;52.400;16.920;2023-11-19T08:10:07;100297.59;;;2.49;90.87
35577;BME280;21680;52.400;16.920;2023-11-19T08:12:35;100287.33;;;2.50;90.79
35577;BME280;21680;52.400;16.920;2023-11-19T08:15:02;100278.14;;;2.52;90.86
35577;BME280;21680;52.400;16.920;2023-11-19T08:17:27;100276.72;;;2.53;90.94
35577;BME280;21680;52.400;16.920;2023-11-19T08:19:53;100271.58;;;2.54;90.92
35577;BME280;21680;52.400;16.920;2023-11-19T08:22:18;100266.59;;;2.57;90.96
35577;BME280;21680;52.400;16.920;2023-11-19T08:24:43;100263.18;;;2.60;90.84
35577;BME280;21680;52.400;16.920;2023-11-19T08:27:08;100261.14;;;2.65;90.85
35577;BME280;21680;52.400;16.920;2023-11-19T08:29:34;100254.40;;;2.67;90.91
35577;BME280;21680;52.400;16.920;2023-11-19T08:32:01;100251.15;;;2.71;90.99
35577;BME280;21680;52.400;16.920;2023-11-19T08:34:27;100245.08;;;2.75;90.94
35577;BME280;21680;52.400;16.920;2023-11-19T08:36:52;100241.65;;;2.79;90.94
35577;BME280;21680;52.400;16.920;2023-11-19T08:39:21;100235.61;;;2.81;90.89
35577;BME280;21680;52.400;16.920;2023-11-19T08:41:47;100231.89;;;2.82;91.00
35577;BME280;21680;52.400;16.920;2023-11-19T08:44:13;100228.86;;;2.84;90.93
35577;BME280;21680;52.400;16.920;2023-11-19T08:46:38;100224.11;;;2.83;90.97
35577;BME280;21680;52.400;16.920;2023-11-19T08:49:05;100223.95;;;2.82;90.86
35577;BME280;21680;52.400;16.920;2023-11-19T08:51:31;100223.27;;;2.80;90.97
35577;BME280;21680;52.400;16.920;2023-11-19T08:53:56;100214.45;;;2.80;90.95
35577;BME280;21680;52.400;16.920;2023-11-19T08:56:22;100213.41;;;2.79;90.95
35577;BME280;21680;52.400;16.920;2023-11-19T08:58:48;100213.05;;;2.80;90.91
35577;BME280;21680;52.400;16.920;2023-11-19T09:01:13;100210.94;;;2.79;90.98
35577;BME280;21680;52.400;16.920;2023-11-19T09:03:41;100204.06;;;2.80;90.99
35577;BME280;21680;52.400;16.920;2023-11-19T09:06:07;100206.18;;;2.79;91.05
35577;BME280;21680;52.400;16.920;2023-11-19T09:08:33;100201.06;;;2.79;90.98
35577;BME280;21680;52.400;16.920;2023-11-19T09:10:58;100199.15;;;2.78;90.89
35577;BME280;21680;52.400;16.920;2023-11-19T09:13:23;100193.20;;;2.76;90.97
35577;BME280;21680;52.400;16.920;2023-11-19T09:15:50;100191.86;;;2.72;90.73
35577;BME280;21680;52.400;16.920;2023-11-19T09:18:15;100183.49;;;2.67;90.72
35577;BME280;21680;52.400;16.920;2023-11-19T09:20:40;100179.91;;;2.60;90.72
35577;BME280;21680;52.400;16.920;2023-11-19T09:23:06;100178.77;;;2.56;90.86
35577;BME280;21680;52.400;16.920;2023-11-19T09:25:33;100174.27;;;2.52;90.92
35577;BME280;21680;52.400;16.920;2023-11-19T09:27:59;100170.29;;;2.48;90.79
35577;BME280;21680;52.400;16.920;2023-11-19T09:30:25;100169.13;;;2.43;90.78
35577;BME280;21680;52.400;16.920;2023-11-19T09:32:50;100166.89;;;2.41;90.79
35577;BME280;21680;52.400;16.920;2023-11-19T09:35:15;100163.79;;;2.37;90.82
35577;BME280;21680;52.400;16.920;2023-11-19T09:37:41;100154.52;;;2.32;90.76
35577;BME280;21680;52.400;16.920;2023-11-19T09:40:07;100152.65;;;2.28;90.59
35577;BME280;21680;52.400;16.920;2023-11-19T09:42:44;100151.48;;;2.25;90.86
35577;BME280;21680;52.400;16.920;2023-11-19T09:45:14;100149.20;;;2.24;90.91
35577;BME280;21680;52.400;16.920;2023-11-19T09:47:43;100148.14;;;2.24;90.84
35577;BME280;21680;52.400;16.920;2023-11-19T09:50:21;100146.77;;;2.22;90.78
35577;BME280;21680;52.400;16.920;2023-11-19T09:52:47;100146.27;;;2.19;90.74
35577;BME280;21680;52.400;16.920;2023-11-19T09:55:13;100145.96;;;2.17;91.00
35577;BME280;21680;52.400;16.920;2023-11-19T09:57:40;100138.90;;;2.18;90.88
35577;BME280;21680;52.400;16.920;2023-11-19T10:00:08;100142.22;;;2.20;91.07
35577;BME280;21680;52.400;16.920;2023-11-19T10:02:35;100135.55;;;2.19;90.97
35577;BME280;21680;52.400;16.920;2023-11-19T10:05:22;100135.41;;;2.16;91.10
35577;BME280;21680;52.400;16.920;2023-11-19T10:07:50;100133.31;;;2.15;90.98
35577;BME280;21680;52.400;16.920;2023-11-19T10:10:15;100128.23;;;2.13;91.04
35577;BME280;21680;52.400;16.920;2023-11-19T10:12:45;100121.02;;;2.13;91.13
35577;BME280;21680;52.400;16.920;2023-11-19T10:15:20;100114.49;;;2.13;91.02
35577;BME280;21680;52.400;16.920;2023-11-19T10:17:47;100118.34;;;2.15;91.18
35577;BME280;21680;52.400;16.920;2023-11-19T10:20:13;100118.35;;;2.14;91.09
35577;BME280;21680;52.400;16.920;2023-11-19T10:22:39;100116.23;;;2.14;91.09
35577;BME280;21680;52.400;16.920;2023-11-19T10:25:25;100113.46;;;2.11;91.11
35577;BME280;21680;52.400;16.920;2023-11-19T10:27:54;100102.52;;;2.12;91.28
35577;BME280;21680;52.400;16.920;2023-11-19T10:33:08;100082.30;;;2.10;91.27
35577;BME280;21680;52.400;16.920;2023-11-19T10:35:35;100073.89;;;2.06;91.15
35577;BME280;21680;52.400;16.920;2023-11-19T10:38:14;100070.64;;;2.02;91.15
35577;BME280;21680;52.400;16.920;2023-11-19T10:40:41;100077.23;;;1.97;91.06
35577;BME280;21680;52.400;16.920;2023-11-19T10:43:06;100077.80;;;1.95;91.25
35577;BME280;21680;52.400;16.920;2023-11-19T10:45:36;100069.50;;;1.97;91.22
35577;BME280;21680;52.400;16.920;2023-11-19T10:48:03;100059.98;;;1.96;91.25
35577;BME280;21680;52.400;16.920;2023-11-19T10:50:34;100045.55;;;1.96;91.29
35577;BME280;21680;52.400;16.920;2023-11-19T10:53:00;100025.98;;;1.96;91.36
35577;BME280;21680;52.400;16.920;2023-11-19T10:55:36;100018.18;;;1.99;91.20
35577;BME280;21680;52.400;16.920;2023-11-19T10:58:10;100024.64;;;2.02;91.59
35577;BME280;21680;52.400;16.920;2023-11-19T11:00:43;100026.39;;;2.03;91.45
35577;BME280;21680;52.400;16.920;2023-11-19T11:03:19;100012.45;;;2.04;91.38
35577;BME280;21680;52.400;16.920;2023-11-19T11:05:48;100010.65;;;2.06;91.64
35577;BME280;21680;52.400;16.920;2023-11-19T11:08:14;100004.46;;;2.07;91.36
35577;BME280;21680;52.400;16.920;2023-11-19T11:10:44;99998.80;;;2.08;91.59
35577;BME280;21680;52.400;16.920;2023-11-19T11:13:11;99995.38;;;2.12;91.65
35577;BME280;21680;52.400;16.920;2023-11-19T11:15:38;99984.77;;;2.14;91.67
35577;BME280;21680;52.400;16.920;2023-11-19T11:18:06;99990.23;;;2.14;91.57
35577;BME280;21680;52.400;16.920;2023-11-19T11:20:34;99987.40;;;2.14;91.40
35577;BME280;21680;52.400;16.920;2023-11-19T11:26:18;99970.13;;;2.14;91.66
35577;BME280;21680;52.400;16.920;2023-11-19T11:29:01;99948.77;;;2.16;91.82
35577;BME280;21680;52.400;16.920;2023-11-19T11:37:37;99940.96;;;2.18;91.60
35577;BME280;21680;52.400;16.920;2023-11-19T11:40:05;99942.37;;;2.18;91.74
35577;BME280;21680;52.400;16.920;2023-11-19T11:42:36;99939.03;;;2.18;91.66
35577;BME280;21680;52.400;16.920;2023-11-19T11:45:03;99937.29;;;2.17;91.88
35577;BME280;21680;52.400;16.920;2023-11-19T11:50:20;99933.23;;;2.17;91.85
35577;BME280;21680;52.400;16.920;2023-11-19T11:55:52;99917.89;;;2.18;91.93
35577;BME280;21680;52.400;16.920;2023-11-19T11:58:25;99910.64;;;2.18;91.83
35577;BME280;21680;52.400;16.920;2023-11-19T12:00:51;99908.17;;;2.19;91.95
35577;BME280;21680;52.400;16.920;2023-11-19T12:03:20;99902.69;;;2.20;91.74
35577;BME280;21680;52.400;16.920;2023-11-19T12:05:47;99901.23;;;2.22;92.08
35577;BME280;21680;52.400;16.920;2023-11-19T12:08:14;99893.95;;;2.24;91.80
35577;BME280;21680;52.400;16.920;2023-11-19T12:10:51;99893.56;;;2.26;91.88
35577;BME280;21680;52.400;16.920;2023-11-19T12:13:18;99883.32;;;2.27;92.02
35577;BME280;21680;52.400;16.920;2023-11-19T12:16:07;99876.61;;;2.27;91.97
35577;BME280;21680;52.400;16.920;2023-11-19T12:18:32;99875.66;;;2.30;91.96
35577;BME280;21680;52.400;16.920;2023-11-19T12:20:59;99877.58;;;2.32;92.18
35577;BME280;21680;52.400;16.920;2023-11-19T12:23:30;99881.63;;;2.32;92.06
35577;BME280;21680;52.400;16.920;2023-11-19T12:25:57;99871.94;;;2.32;91.98
35577;BME280;21680;52.400;16.920;2023-11-19T12:28:22;99864.00;;;2.32;91.94
35577;BME280;21680;52.400;16.920;2023-11-19T12:30:49;99854.46;;;2.33;92.04
35577;BME280;21680;52.400;16.920;2023-11-19T12:33:15;99848.42;;;2.35;91.94
35577;BME280;21680;52.400;16.920;2023-11-19T12:35:42;99844.67;;;2.37;92.11
35577;BME280;21680;52.400;16.920;2023-11-19T12:38:30;99846.79;;;2.37;92.24
35577;BME280;21680;52.400;16.920;2023-11-19T12:41:08;99844.30;;;2.38;92.14
35577;BME280;21680;52.400;16.920;2023-11-19T12:43:45;99849.96;;;2.37;91.93
35577;BME280;21680;52.400;16.920;2023-11-19T12:46:21;99847.70;;;2.35;92.21
35577;BME280;21680;52.400;16.920;2023-11-19T12:48:50;99847.34;;;2.36;92.21
35577;BME280;21680;52.400;16.920;2023-11-19T12:51:16;99843.98;;;2.36;92.12
35577;BME280;21680;52.400;16.920;2023-11-19T12:53:52;99846.44;;;2.36;92.05
35577;BME280;21680;52.400;16.920;2023-11-19T12:56:23;99840.09;;;2.37;92.26
35577;BME280;21680;52.400;16.920;2023-11-19T12:58:48;99831.59;;;2.39;92.30
35577;BME280;21680;52.400;16.920;2023-11-19T13:01:19;99832.83;;;2.39;92.17
35577;BME280;21680;52.400;16.920;2023-11-19T13:03:45;99833.68;;;2.39;92.27
35577;BME280;21680;52.400;16.920;2023-11-19T13:06:13;99829.11;;;2.39;92.15
35577;BME280;21680;52.400;16.920;2023-11-19T13:08:44;99822.95;;;2.38;92.12